Time;durP1;ratioP1;P1;durP2;ratioP2;P2;SDS_P1;SDS_P2;PMS_P1;PMS_P2;Temp;Humidity;BMP_temperature;BMP_pressure;BME280_temperature;BME280_humidity;BME280_pressure;Samples;Min_cycle;Max_cycle;Signal;HPM_P1;HPM_P2
2022/11/25 00:01:25;;;;;;;14.33;5.70;;;;;;;3.91;100.00;100022.44;124167;1102;104229;-79
2022/11/25 00:03:58;;;;;;;14.53;5.70;;;;;;;3.91;100.00;100025.95;124374;1102;104862;-81
2022/11/25 00:06:31;;;;;;;13.13;5.63;;;;;;;3.90;100.00;100034.53;123535;1102;104303;-80
2022/11/25 00:09:04;;;;;;;14.38;6.03;;;;;;;3.87;100.00;100034.36;124001;1102;104293;-80
2022/11/25 00:11:38;;;;;;;15.17;5.43;;;;;;;3.88;100.00;100037.84;123758;1102;104267;-80
2022/11/25 00:14:12;;;;;;;15.30;5.80;;;;;;;3.85;100.00;100041.19;124013;1102;104332;-77
2022/11/25 00:16:42;;;;;;;;;;;;;;;3.84;100.00;100036.80;123947;1102;104214;-81
2022/11/25 00:19:13;;;;;;;18.30;6.93;;;;;;;3.82;100.00;100035.83;123881;1102;104363;-79
2022/11/25 00:21:44;;;;;;;15.27;5.67;;;;;;;3.82;100.00;100046.20;123831;1102;104261;-80
2022/11/25 00:24:16;;;;;;;15.17;6.07;;;;;;;3.82;100.00;100047.89;124410;1102;104342;-81
2022/11/25 00:26:48;;;;;;;16.83;5.97;;;;;;;3.81;100.00;100049.59;123570;1102;104351;-80
2022/11/25 00:29:19;;;;;;;14.93;5.70;;;;;;;3.81;100.00;100053.91;123478;1102;104414;-81
2022/11/25 00:31:51;;;;;;;15.90;5.97;;;;;;;3.76;100.00;100046.75;123925;1102;104984;-82
2022/11/25 00:34:22;;;;;;;15.63;6.20;;;;;;;3.76;100.00;100048.46;124256;1102;104179;-82
2022/11/25 00:36:53;;;;;;;12.97;5.50;;;;;;;3.75;100.00;100057.92;123591;1102;104341;-80
2022/11/25 00:39:25;;;;;;;11.90;5.43;;;;;;;3.73;100.00;100051.77;123979;1102;104364;-78
2022/11/25 00:44:46;;;;;;;13.20;5.93;;;;;;;3.73;100.00;100056.95;123491;1103;104345;-81
2022/11/25 00:47:19;;;;;;;14.23;5.20;;;;;;;3.72;100.00;100059.47;123471;1102;104178;-83
2022/11/25 00:49:52;;;;;;;13.40;5.87;;;;;;;3.69;100.00;100054.10;123813;1102;104399;-80
2022/11/25 00:52:24;;;;;;;11.77;5.50;;;;;;;3.69;100.00;100046.32;123633;1105;104287;-80
2022/11/25 00:54:56;;;;;;;12.47;4.97;;;;;;;3.68;100.00;100052.34;124081;1102;104179;-80
2022/11/25 00:57:27;;;;;;;12.67;4.93;;;;;;;3.67;100.00;100046.23;123841;1102;104284;-82
2022/11/25 00:59:58;;;;;;;11.30;5.23;;;;;;;3.66;100.00;100048.74;124272;1102;104287;-80
2022/11/25 01:02:32;;;;;;;15.43;6.13;;;;;;;3.65;100.00;100044.38;123681;1102;104261;-79
2022/11/25 01:05:03;;;;;;;15.65;5.95;;;;;;;3.63;100.00;100048.57;123627;1102;104229;-83
2022/11/25 01:07:34;;;;;;;14.37;5.90;;;;;;;3.63;100.00;100048.57;123911;1105;104341;-79
2022/11/25 01:10:06;;;;;;;16.93;6.13;;;;;;;3.60;100.00;100039.82;123318;1102;104290;-80
2022/11/25 01:12:37;;;;;;;15.87;5.73;;;;;;;3.56;100.00;100055.13;123642;1102;104251;-82
2022/11/25 01:15:11;;;;;;;15.93;6.37;;;;;;;3.53;100.00;100052.36;123648;1102;104169;-79
2022/11/25 01:17:42;;;;;;;14.23;6.20;;;;;;;3.49;100.00;100043.52;123932;1105;103139;-82
2022/11/25 01:20:16;;;;;;;12.13;5.27;;;;;;;3.48;100.00;100057.28;123518;1102;104239;-80
2022/11/25 01:22:49;;;;;;;13.28;5.80;;;;;;;3.47;100.00;100054.60;124162;1103;104297;-81
2022/11/25 01:25:20;;;;;;;13.10;5.87;;;;;;;3.45;100.00;100064.01;124027;1102;104224;-80
2022/11/25 01:27:51;;;;;;;14.50;5.60;;;;;;;3.43;100.00;100061.33;123644;1102;104399;-80
2022/11/25 01:30:22;;;;;;;14.30;5.23;;;;;;;3.39;100.00;100057.64;123304;1102;104303;-80
2022/11/25 01:32:53;;;;;;;14.93;5.70;;;;;;;3.37;100.00;100060.97;123743;1102;104363;-82
2022/11/25 01:35:24;;;;;;;13.70;5.50;;;;;;;3.37;100.00;100051.48;123853;1102;104252;-84
2022/11/25 01:37:55;;;;;;;15.75;5.50;;;;;;;3.35;100.00;100057.37;123804;1102;104252;-80
2022/11/25 01:40:28;;;;;;;15.30;5.87;;;;;;;3.34;100.00;100050.42;123704;1102;104381;-82
2022/11/25 01:42:59;;;;;;;11.90;5.25;;;;;;;3.31;100.00;100068.41;123756;1105;104409;-83
2022/11/25 01:45:40;;;;;;;14.90;5.47;;;;;;;3.30;100.00;100069.20;123613;1102;104309;-81
2022/11/25 01:48:18;;;;;;;13.87;5.70;;;;;;;3.30;100.00;100087.34;124381;1102;104277;-78
2022/11/25 01:50:50;;;;;;;10.97;5.17;;;;;;;3.31;100.00;100081.37;123579;1102;104239;-80
2022/11/25 01:53:23;;;;;;;11.07;4.97;;;;;;;3.29;100.00;100091.66;123954;1102;102176;-81
2022/11/25 01:55:59;;;;;;;14.37;6.00;;;;;;;3.26;100.00;100087.97;123538;1102;104412;-82
2022/11/25 01:58:34;;;;;;;14.87;6.03;;;;;;;3.22;100.00;100098.16;123625;1105;104309;-81
2022/11/25 02:01:05;;;;;;;13.47;5.30;;;;;;;3.17;100.00;100102.19;123448;1102;104249;-82
2022/11/25 02:03:40;;;;;;;15.10;5.87;;;;;;;3.14;100.00;100098.53;123679;1102;104274;-82
2022/11/25 02:06:17;;;;;;;15.17;6.50;;;;;;;3.09;100.00;100095.67;123500;1102;104185;-79
2022/11/25 02:08:50;;;;;;;16.47;6.00;;;;;;;3.05;100.00;100086.83;123588;1102;104235;-81
2022/11/25 02:11:25;;;;;;;16.77;6.40;;;;;;;3.04;100.00;100089.33;123891;1102;104255;-80
2022/11/25 02:13:58;;;;;;;17.45;6.30;;;;;;;3.02;100.00;100093.50;123358;1101;104283;-80
2022/11/25 02:16:30;;;;;;;14.35;5.70;;;;;;;2.99;100.00;100082.95;123424;1102;104358;-80
2022/11/25 02:19:03;;;;;;;14.37;5.80;;;;;;;2.97;100.00;100075.09;123423;1102;104297;-80
2022/11/25 02:21:40;;;;;;;16.53;5.77;;;;;;;2.99;100.00;100078.69;123534;1102;104303;-79
2022/11/25 02:24:17;;;;;;;14.60;5.93;;;;;;;2.99;100.00;100077.77;123387;1102;104730;-82
2022/11/25 02:26:49;;;;;;;16.97;6.60;;;;;;;2.97;100.00;100075.09;123458;1102;104312;-80
2022/11/25 02:29:20;;;;;;;19.13;7.30;;;;;;;2.95;100.00;100068.05;123433;1102;104255;-80
2022/11/25 02:31:52;;;;;;;20.80;8.05;;;;;;;2.93;100.00;100085.18;123653;1102;104293;-80
2022/11/25 02:34:23;;;;;;;21.87;7.77;;;;;;;2.93;100.00;100080.00;123429;1102;104204;-82
2022/11/25 02:36:55;;;;;;;20.93;9.00;;;;;;;2.93;100.00;100082.59;123726;1103;104303;-80
2022/11/25 02:39:28;;;;;;;20.73;8.27;;;;;;;2.93;100.00;100078.32;123465;1102;104361;-82
2022/11/25 02:42:01;;;;;;;21.37;8.60;;;;;;;2.94;100.00;100081.80;123436;1105;104303;-81
2022/11/25 02:44:33;;;;;;;21.67;8.07;;;;;;;2.94;100.00;100097.34;123342;1102;104360;-82
2022/11/25 02:47:04;;;;;;;20.27;8.43;;;;;;;2.91;100.00;100073.84;123671;1103;104274;-81
2022/11/25 02:49:35;;;;;;;19.93;7.83;;;;;;;2.92;100.00;100076.52;123621;1102;104808;-81
2022/11/25 02:52:07;;;;;;;20.77;8.10;;;;;;;2.94;100.00;100081.80;123680;1102;104715;-81
2022/11/25 02:54:38;;;;;;;21.83;8.97;;;;;;;2.95;100.00;100081.00;123470;1105;105647;-80
2022/11/25 02:57:09;;;;;;;22.73;9.00;;;;;;;2.95;100.00;100081.89;124237;1105;104431;-79
2022/11/25 02:59:40;;;;;;;23.10;8.33;;;;;;;2.97;100.00;100080.27;123849;1102;104242;-78
2022/11/25 03:02:11;;;;;;;22.37;8.63;;;;;;;3.00;100.00;100085.64;123433;1102;104367;-77
2022/11/25 03:04:42;;;;;;;23.35;9.50;;;;;;;3.01;100.00;100087.44;123788;1102;104283;-80
2022/11/25 03:07:14;;;;;;;22.07;8.63;;;;;;;3.02;100.00;100084.05;123684;1102;104179;-80
2022/11/25 03:09:45;;;;;;;21.17;8.07;;;;;;;3.01;100.00;100086.55;123401;1105;104360;-81
2022/11/25 03:12:19;;;;;;;22.97;9.07;;;;;;;2.99;100.00;100094.23;123433;1102;104326;-81
2022/11/25 03:14:49;;;;;;;;;;;;;;;2.99;100.00;100093.32;123835;1103;104229;-80
2022/11/25 03:17:20;;;;;;;23.50;9.23;;;;;;;2.99;100.00;100091.64;123605;1102;104347;-81
2022/11/25 03:19:51;;;;;;;28.90;12.83;;;;;;;3.00;100.00;100092.53;123370;1103;104440;-83
2022/11/25 03:22:23;;;;;;;33.77;16.13;;;;;;;3.00;100.00;100090.82;123818;1102;104214;-81
2022/11/25 03:24:54;;;;;;;28.57;12.63;;;;;;;3.01;100.00;100107.29;123583;1102;104386;-84
2022/11/25 03:27:25;;;;;;;24.60;10.50;;;;;;;3.01;100.00;100107.29;123648;1102;104289;-80
2022/11/25 03:29:57;;;;;;;20.33;8.60;;;;;;;3.01;100.00;100102.11;123560;1102;104303;-80
2022/11/25 03:32:28;;;;;;;18.33;7.73;;;;;;;3.02;100.00;100101.28;123779;1106;104370;-81
2022/11/25 03:35:00;;;;;;;15.90;6.87;;;;;;;3.01;100.00;100102.11;123868;1102;104188;-81
2022/11/25 03:37:31;;;;;;;18.83;7.00;;;;;;;3.03;100.00;100103.08;123535;1105;104380;-83
2022/11/25 03:40:03;;;;;;;13.35;5.30;;;;;;;3.03;100.00;100111.74;123511;1102;104184;-82
2022/11/25 03:42:35;;;;;;;12.57;5.43;;;;;;;3.02;100.00;100109.97;123620;1105;104341;-80
2022/11/25 03:45:09;;;;;;;12.83;5.63;;;;;;;3.02;100.00;100116.83;123765;1105;104181;-81
2022/11/25 03:47:40;;;;;;;;;;;;;;;3.04;100.00;100123.03;123409;1102;104239;-80
2022/11/25 03:50:14;;;;;;;12.40;5.40;;;;;;;3.03;100.00;100122.11;123871;1102;104280;-78
2022/11/25 03:52:46;;;;;;;11.85;5.30;;;;;;;3.05;100.00;100122.20;123517;1102;104250;-81
2022/11/25 03:55:18;;;;;;;14.60;5.20;;;;;;;3.07;100.00;100120.62;123583;1102;104303;-82
2022/11/25 03:57:50;;;;;;;9.03;4.70;;;;;;;3.08;100.00;100124.98;123953;1105;104214;-80
2022/11/25 04:00:22;;;;;;;11.50;4.90;;;;;;;3.10;100.00;100127.66;123771;1102;104214;-82
2022/11/25 04:03:01;;;;;;;6.80;3.77;;;;;;;3.12;100.00;100134.73;123874;1105;104332;-81
2022/11/25 04:05:34;;;;;;;9.17;4.10;;;;;;;3.13;100.00;100128.76;123821;1102;104351;-82
2022/11/25 04:08:09;;;;;;;10.93;4.47;;;;;;;3.13;100.00;100122.66;124183;1102;104280;-81
2022/11/25 04:10:41;;;;;;;9.87;4.87;;;;;;;3.13;100.00;100123.58;124368;1104;104395;-82
2022/11/25 04:13:13;;;;;;;8.80;4.20;;;;;;;3.13;100.00;100133.95;124015;1105;104255;-78
2022/11/25 04:15:48;;;;;;;7.53;3.97;;;;;;;3.12;100.00;100121.77;124432;1102;104229;-85
2022/11/25 04:18:21;;;;;;;9.57;4.50;;;;;;;3.14;100.00;100134.83;124096;1102;104233;-87
2022/11/25 04:20:54;;;;;;;11.37;4.50;;;;;;;3.14;100.00;100137.42;123413;1102;104753;-82
2022/11/25 04:23:26;;;;;;;9.63;4.40;;;;;;;3.15;100.00;100142.70;123471;1102;104277;-78
2022/11/25 04:26:02;;;;;;;9.60;4.23;;;;;;;3.15;100.00;100136.63;123558;1105;104502;-81
2022/11/25 04:28:40;;;;;;;8.93;4.00;;;;;;;3.14;100.00;100130.53;123256;1102;104280;-77
2022/11/25 04:31:12;;;;;;;11.77;4.30;;;;;;;3.15;100.00;100134.92;123483;1105;104264;-77
2022/11/25 04:33:46;;;;;;;8.28;3.85;;;;;;;3.15;100.00;100136.63;123447;1102;104251;-80
2022/11/25 04:36:17;;;;;;;10.60;4.70;;;;;;;3.15;100.00;100136.63;123249;1102;104271;-79
2022/11/25 04:38:48;;;;;;;6.75;3.30;;;;;;;3.14;100.00;100146.08;123404;1102;104501;-80
2022/11/25 04:41:19;;;;;;;7.37;4.03;;;;;;;3.13;100.00;100148.59;123340;1102;104339;-82
2022/11/25 04:43:52;;;;;;;11.37;4.90;;;;;;;3.13;100.00;100146.91;123340;1105;104315;-78
2022/11/25 04:46:29;;;;;;;8.70;4.50;;;;;;;3.15;100.00;100158.25;123322;1103;104309;-79
2022/11/25 04:49:00;;;;;;;9.97;4.87;;;;;;;3.16;100.00;100148.77;123286;1103;104286;-79
2022/11/25 04:51:31;;;;;;;12.13;4.70;;;;;;;3.16;100.00;100160.02;123441;1102;104371;-79
2022/11/25 04:54:05;;;;;;;10.38;4.72;;;;;;;3.18;100.00;100162.70;123315;1103;104361;-79
2022/11/25 04:56:38;;;;;;;12.57;4.93;;;;;;;3.21;100.00;100168.08;123393;1105;104348;-81
2022/11/25 05:02:00;;;;;;;12.53;5.03;;;;;;;3.15;100.00;100152.19;123314;1103;104236;-81
2022/11/25 05:04:39;;;;;;;11.07;4.67;;;;;;;3.21;100.00;100161.22;123363;1105;104505;-81
2022/11/25 05:07:11;;;;;;;7.43;3.93;;;;;;;3.19;100.00;100165.39;123274;1105;104335;-78
2022/11/25 05:09:43;;;;;;;10.55;4.70;;;;;;;3.18;100.00;100161.03;123395;1105;104261;-80
2022/11/25 05:12:24;;;;;;;10.13;5.00;;;;;;;3.20;100.00;100171.49;123354;1105;104338;-81
2022/11/25 05:14:55;;;;;;;12.03;5.00;;;;;;;3.21;100.00;100173.27;123645;1102;104207;-81
2022/11/25 05:17:29;;;;;;;14.47;4.90;;;;;;;3.22;100.00;100183.73;123455;1102;104376;-81
2022/11/25 05:20:03;;;;;;;12.93;5.80;;;;;;;3.24;100.00;100202.89;123319;1105;104399;-80
2022/11/25 05:22:36;;;;;;;12.40;5.10;;;;;;;3.26;100.00;100197.80;123609;1103;104297;-81
2022/11/25 05:25:10;;;;;;;12.10;4.87;;;;;;;3.26;100.00;100202.98;123462;1105;104232;-77
2022/11/25 05:27:51;;;;;;;12.20;5.13;;;;;;;3.26;100.00;100207.25;123826;1102;104248;-80
2022/11/25 05:30:22;;;;;;;12.80;5.13;;;;;;;3.27;100.00;100224.61;123822;1105;104258;-80
2022/11/25 05:32:54;;;;;;;11.77;5.30;;;;;;;3.27;100.00;100225.50;123751;1105;101919;-80
2022/11/25 05:35:25;;;;;;;14.00;4.67;;;;;;;3.26;100.00;100228.91;123744;1102;104175;-79
2022/11/25 05:37:58;;;;;;;9.73;4.80;;;;;;;3.27;100.00;100246.24;123661;1102;104171;-81
2022/11/25 05:40:30;;;;;;;8.87;4.37;;;;;;;3.27;100.00;100258.33;123697;1102;104319;-80
2022/11/25 05:43:22;;;;;;;10.13;4.47;;;;;;;3.27;100.00;100259.20;123780;1102;104383;-81
2022/11/25 05:45:53;;;;;;;11.50;4.70;;;;;;;3.26;100.00;100254.84;123713;1102;104290;-78
2022/11/25 05:48:24;;;;;;;10.90;4.85;;;;;;;3.26;100.00;100261.70;123971;1102;104287;-79
2022/11/25 05:50:59;;;;;;;8.97;4.37;;;;;;;3.29;100.00;100264.48;124059;1102;104294;-79
2022/11/25 05:53:32;;;;;;;11.43;5.00;;;;;;;3.28;100.00;100267.91;124593;1102;104220;-78
2022/11/25 05:56:06;;;;;;;9.87;4.47;;;;;;;3.28;100.00;100275.69;124130;1102;104398;-79
2022/11/25 05:58:58;;;;;;;13.93;5.60;;;;;;;3.27;100.00;100271.29;123772;1102;107329;-80
2022/11/25 06:01:33;;;;;;;13.23;5.40;;;;;;;3.27;100.00;100266.98;124038;1102;104796;-78
2022/11/25 06:04:06;;;;;;;13.07;5.37;;;;;;;3.27;100.00;100273.88;123718;1103;104281;-80
2022/11/25 06:06:37;;;;;;;14.13;5.70;;;;;;;3.26;100.00;100274.67;124039;1105;104389;-77
2022/11/25 06:09:08;;;;;;;17.70;7.33;;;;;;;3.25;100.00;100268.60;124149;1102;104620;-77
2022/11/25 06:11:41;;;;;;;16.40;6.20;;;;;;;3.28;100.00;100283.47;123984;1105;104380;-77
2022/11/25 06:14:12;;;;;;;15.90;6.00;;;;;;;3.26;100.00;100285.05;124248;1102;104239;-78
2022/11/25 06:16:47;;;;;;;15.57;5.77;;;;;;;3.24;100.00;100283.28;124401;1105;102134;-78
2022/11/25 06:19:31;;;;;;;17.73;6.63;;;;;;;3.24;100.00;100284.95;124094;1102;104208;-79
2022/11/25 06:22:03;;;;;;;14.97;6.13;;;;;;;3.23;100.00;100299.62;124200;1102;104163;-77
2022/11/25 06:24:34;;;;;;;20.40;8.50;;;;;;;3.23;100.00;100294.44;124714;1105;102646;-79
2022/11/25 06:27:09;;;;;;;15.40;5.90;;;;;;;3.23;100.00;100301.34;124400;1102;102381;-78
2022/11/25 06:29:40;;;;;;;13.60;5.93;;;;;;;3.23;100.00;100297.03;124363;1103;102019;-79
2022/11/25 06:32:11;;;;;;;17.87;6.27;;;;;;;3.24;100.00;100303.10;124730;1102;104255;-76
2022/11/25 06:35:10;;;;;;;13.67;6.10;;;;;;;3.24;100.00;100310.88;125430;1099;102174;-73
2022/11/25 06:37:52;;;;;;;14.93;6.70;;;;;;;3.25;100.00;100312.69;124778;1102;104642;-78
2022/11/25 06:40:24;;;;;;;15.33;6.33;;;;;;;3.27;100.00;100315.37;124767;1102;104195;-77
2022/11/25 06:42:55;;;;;;;18.13;7.07;;;;;;;3.26;100.00;100311.90;124646;1102;102081;-76
2022/11/25 06:45:27;;;;;;;15.33;6.83;;;;;;;3.24;100.00;100314.39;124718;1102;104232;-78
2022/11/25 06:47:58;;;;;;;15.30;7.17;;;;;;;3.27;100.00;100317.97;124916;1102;104555;-81
2022/11/25 06:50:30;;;;;;;19.40;6.90;;;;;;;3.30;100.00;100323.34;124651;1102;102150;-76
2022/11/25 06:53:04;;;;;;;19.40;7.30;;;;;;;3.31;100.00;100315.66;124745;1102;104175;-78
2022/11/25 06:55:38;;;;;;;18.80;6.83;;;;;;;3.30;100.00;100324.23;124871;1102;104222;-78
2022/11/25 06:58:09;;;;;;;20.37;7.03;;;;;;;3.32;100.00;100332.11;124674;1102;105283;-77
2022/11/25 07:00:42;;;;;;;20.17;6.93;;;;;;;3.33;100.00;100319.23;124729;1102;103267;-79
2022/11/25 07:03:13;;;;;;;22.23;7.30;;;;;;;3.27;100.00;100315.37;124605;1102;103431;-78
2022/11/25 07:05:44;;;;;;;19.60;7.90;;;;;;;3.32;100.00;100327.84;124448;1102;104192;-77
2022/11/25 07:08:18;;;;;;;19.43;7.07;;;;;;;3.32;100.00;100334.70;124858;1102;104133;-79
2022/11/25 07:10:50;;;;;;;21.90;7.70;;;;;;;3.32;100.00;100321.73;124488;1102;103522;-78
2022/11/25 07:13:21;;;;;;;20.33;8.00;;;;;;;3.34;100.00;100325.34;124338;1102;104294;-77
2022/11/25 07:15:52;;;;;;;17.00;6.63;;;;;;;3.36;100.00;100326.32;124494;1102;104684;-77
2022/11/25 07:18:24;;;;;;;15.27;6.37;;;;;;;3.36;100.00;100329.80;124463;1102;104278;-78
2022/11/25 07:20:55;;;;;;;15.77;6.60;;;;;;;3.37;100.00;100322.94;124639;1102;111079;-77
2022/11/25 07:23:27;;;;;;;15.63;6.57;;;;;;;3.39;100.00;100335.17;124699;1102;104229;-76
2022/11/25 07:26:03;;;;;;;16.27;6.90;;;;;;;3.41;100.00;100327.48;124880;1102;103383;-79
2022/11/25 07:28:36;;;;;;;15.63;6.57;;;;;;;3.42;100.00;100322.39;124659;1102;104176;-80
2022/11/25 07:31:10;;;;;;;17.50;6.03;;;;;;;3.45;100.00;100329.48;124491;1102;104293;-76
2022/11/25 07:33:42;;;;;;;14.33;6.30;;;;;;;3.47;100.00;100330.46;124576;1102;102939;-77
2022/11/25 07:36:16;;;;;;;16.23;6.40;;;;;;;3.49;100.00;100336.66;124297;1101;103000;-77
2022/11/25 07:38:49;;;;;;;13.90;5.90;;;;;;;3.52;100.00;100336.85;124239;1102;102573;-78
2022/11/25 07:41:25;;;;;;;12.67;5.50;;;;;;;3.53;100.00;100338.63;124569;1102;107970;-77
2022/11/25 07:43:58;;;;;;;16.73;6.33;;;;;;;3.55;100.00;100346.50;126396;1102;101633;-79
2022/11/25 07:46:32;;;;;;;16.50;6.20;;;;;;;3.57;100.00;100334.53;125714;1102;102703;-77
2022/11/25 07:49:07;;;;;;;16.40;5.92;;;;;;;3.57;100.00;100337.13;125991;1101;102584;-77
2022/11/25 07:51:41;;;;;;;16.10;5.97;;;;;;;3.57;100.00;100339.73;125638;1102;120006;-76
2022/11/25 07:54:15;;;;;;;13.63;6.07;;;;;;;3.58;100.00;100344.09;125863;1102;101852;-77
2022/11/25 07:56:47;;;;;;;;;;;;;;;3.58;100.00;100352.80;126260;1101;103345;-78
2022/11/25 07:59:24;;;;;;;13.93;6.13;;;;;;;3.59;100.00;100349.37;126197;1102;102820;-78
2022/11/25 08:02:12;;;;;;;13.70;6.17;;;;;;;3.59;100.00;100351.97;126144;1101;102278;-76
2022/11/25 08:04:46;;;;;;;15.80;6.13;;;;;;;3.61;100.00;100354.66;125684;1102;102069;-75
2022/11/25 08:07:19;;;;;;;15.57;6.33;;;;;;;3.60;100.00;100356.37;125832;1102;103457;-75
2022/11/25 08:09:53;;;;;;;16.02;6.40;;;;;;;3.64;100.00;100361.75;125838;1102;102944;-78
2022/11/25 08:12:25;;;;;;;16.65;6.65;;;;;;;3.68;100.00;100364.62;125712;1102;111155;-76
2022/11/25 08:14:56;;;;;;;15.43;6.83;;;;;;;3.72;100.00;100368.29;125581;1102;102868;-75
2022/11/25 08:17:28;;;;;;;15.77;6.53;;;;;;;3.72;100.00;100368.29;125636;1102;102305;-77
2022/11/25 08:19:59;;;;;;;15.47;6.90;;;;;;;3.72;100.00;100369.17;125587;1102;102806;-75
2022/11/25 08:22:36;;;;;;;14.70;6.30;;;;;;;3.76;100.00;100372.87;125571;1102;102004;-75
2022/11/25 08:25:13;;;;;;;19.60;7.47;;;;;;;3.77;100.00;100369.45;125737;1102;102800;-74
2022/11/25 08:27:47;;;;;;;17.03;7.20;;;;;;;3.76;100.00;100373.77;125722;1102;102212;-75
2022/11/25 08:30:24;;;;;;;16.77;6.80;;;;;;;3.77;100.00;100365.18;125785;1102;103495;-74
2022/11/25 08:32:59;;;;;;;17.67;6.60;;;;;;;3.80;100.00;100366.16;125550;1102;107923;-73
2022/11/25 08:35:32;;;;;;;16.63;6.83;;;;;;;3.81;100.00;100370.56;125768;1102;102670;-74
2022/11/25 08:38:08;;;;;;;16.33;6.40;;;;;;;3.78;100.00;100360.88;125753;1102;102503;-76
2022/11/25 08:40:47;;;;;;;18.50;7.10;;;;;;;3.76;100.00;100368.57;125601;1102;102244;-75
2022/11/25 08:43:20;;;;;;;18.83;7.70;;;;;;;3.79;100.00;100365.28;125696;1102;117772;-76
2022/11/25 08:45:53;;;;;;;15.87;6.80;;;;;;;3.80;100.00;100374.83;125761;1102;102253;-78
2022/11/25 08:48:42;;;;;;;16.80;6.90;;;;;;;3.80;100.00;100363.56;125864;1102;101908;-76
2022/11/25 08:51:28;;;;;;;20.03;7.70;;;;;;;3.80;100.00;100363.56;125766;1101;102587;-76
2022/11/25 08:54:00;;;;;;;16.73;7.00;;;;;;;3.82;100.00;100365.46;125874;1102;102664;-78
2022/11/25 08:56:35;;;;;;;16.67;7.50;;;;;;;3.85;100.00;100357.86;125855;1102;103231;-76
2022/11/25 08:59:12;;;;;;;15.20;6.87;;;;;;;3.88;100.00;100355.45;125795;1101;102417;-76
2022/11/25 09:01:49;;;;;;;18.67;7.17;;;;;;;3.92;100.00;100357.41;125494;1102;102272;-75
2022/11/25 09:04:22;;;;;;;16.13;6.77;;;;;;;3.95;100.00;100365.38;125433;1102;102639;-75
2022/11/25 09:06:54;;;;;;;14.80;6.80;;;;;;;3.95;100.00;100367.09;125697;1101;101953;-77
2022/11/25 09:09:27;;;;;;;15.43;6.27;;;;;;;3.94;100.00;100367.88;125769;1102;102764;-76
2022/11/25 09:12:07;;;;;;;15.23;6.70;;;;;;;3.92;100.00;100372.98;125766;1102;101979;-75
2022/11/25 09:14:40;;;;;;;17.67;7.80;;;;;;;3.91;100.00;100365.10;125736;1102;101929;-77
2022/11/25 09:17:15;;;;;;;17.90;8.07;;;;;;;3.94;100.00;100367.88;125743;1101;102801;-76
2022/11/25 09:19:49;;;;;;;16.80;6.80;;;;;;;3.96;100.00;100377.56;125755;1102;103459;-79
2022/11/25 09:22:21;;;;;;;18.93;7.43;;;;;;;3.98;100.00;100366.39;125693;1102;102777;-76
2022/11/25 09:24:59;;;;;;;15.63;7.13;;;;;;;3.99;100.00;100362.97;125833;1101;102779;-77
2022/11/25 09:27:38;;;;;;;17.10;7.33;;;;;;;4.02;100.00;100365.74;125802;1101;102616;-75
2022/11/25 09:30:15;;;;;;;18.07;7.27;;;;;;;4.04;100.00;100372.83;125808;1102;102686;-76
2022/11/25 09:32:51;;;;;;;19.20;6.90;;;;;;;4.05;100.00;100378.91;125734;1102;102195;-76
2022/11/25 09:35:24;;;;;;;19.10;7.73;;;;;;;4.05;100.00;100366.84;126348;1101;102848;-75
2022/11/25 09:38:00;;;;;;;21.63;7.87;;;;;;;4.10;100.00;100374.91;125517;1102;102164;-77
2022/11/25 09:40:42;;;;;;;26.93;8.55;;;;;;;4.11;100.00;100367.21;125723;1102;103361;-75
2022/11/25 09:46:46;;;;;;;22.33;7.80;;;;;;;4.10;100.00;100375.80;126016;1102;103089;-77
2022/11/25 09:49:36;;;;;;;20.27;8.10;;;;;;;4.06;100.00;100380.72;125636;1102;103484;-75
2022/11/25 09:52:18;;;;;;;18.37;7.60;;;;;;;4.04;100.00;100375.43;126032;1101;102771;-78
2022/11/25 09:54:59;;;;;;;19.43;8.57;;;;;;;4.05;100.00;100398.00;125901;1102;102701;-78
2022/11/25 09:57:43;;;;;;;18.90;7.80;;;;;;;4.04;100.00;100388.41;125804;1100;102082;-76
2022/11/25 10:00:17;;;;;;;18.85;8.10;;;;;;;4.03;100.00;100388.31;125617;1101;102538;-77
2022/11/25 10:02:59;;;;;;;19.67;7.73;;;;;;;4.02;100.00;100392.63;125650;1102;103270;-77
2022/11/25 10:05:36;;;;;;;17.80;7.27;;;;;;;4.01;100.00;100380.44;125926;1101;102174;-76
2022/11/25 10:08:20;;;;;;;18.60;7.97;;;;;;;4.03;100.00;100388.31;125530;1102;102723;-77
2022/11/25 10:11:14;;;;;;;18.93;8.30;;;;;;;4.06;100.00;100385.91;125671;1102;102741;-75
2022/11/25 10:13:52;;;;;;;18.87;7.83;;;;;;;4.09;100.00;100379.19;125748;1101;102866;-75
2022/11/25 10:16:34;;;;;;;19.73;7.83;;;;;;;4.15;100.00;100386.45;125556;1101;103498;-75
2022/11/25 10:19:13;;;;;;;19.73;7.87;;;;;;;4.18;100.00;100386.64;125595;1102;102455;-74
2022/11/25 10:21:48;;;;;;;17.43;7.97;;;;;;;4.18;100.00;100384.05;125493;1102;102117;-80
2022/11/25 10:24:24;;;;;;;18.23;8.00;;;;;;;4.18;100.00;100388.36;125635;1102;102768;-77
2022/11/25 10:27:02;;;;;;;19.80;7.90;;;;;;;4.17;100.00;100379.64;125833;1102;102189;-75
2022/11/25 10:29:42;;;;;;;21.43;8.70;;;;;;;4.15;100.00;100383.86;125613;1102;103467;-76
2022/11/25 10:32:36;;;;;;;20.30;8.57;;;;;;;4.16;100.00;100385.66;125644;1102;102746;-76
2022/11/25 10:35:19;;;;;;;19.50;8.10;;;;;;;4.20;100.00;100377.23;125607;1102;102044;-75
2022/11/25 10:37:57;;;;;;;19.87;8.63;;;;;;;4.21;100.00;100381.62;125684;1102;102564;-76
2022/11/25 10:40:28;;;;;;;21.73;9.83;;;;;;;4.25;100.00;100382.70;125636;1102;102997;-77
2022/11/25 10:43:14;;;;;;;21.03;9.03;;;;;;;4.26;100.00;100382.78;125583;1102;102698;-75
2022/11/25 10:45:53;;;;;;;21.47;9.73;;;;;;;4.25;100.00;100391.38;125746;1102;107517;-76
2022/11/25 10:48:45;;;;;;;22.50;10.87;;;;;;;4.26;100.00;100389.69;125799;1102;102681;-76
2022/11/25 10:51:38;;;;;;;21.47;10.23;;;;;;;4.27;100.00;100401.85;125873;1101;102186;-75
2022/11/25 10:54:16;;;;;;;21.47;9.80;;;;;;;4.25;100.00;100395.69;125834;1102;101438;-75
2022/11/25 10:56:55;;;;;;;22.80;10.85;;;;;;;4.25;100.00;100406.95;125544;1102;103017;-74
2022/11/25 10:59:33;;;;;;;26.37;13.10;;;;;;;4.26;100.00;100407.88;125635;1102;102417;-76
2022/11/25 11:02:24;;;;;;;27.10;11.83;;;;;;;4.27;100.00;100404.45;125687;1101;102414;-75
2022/11/25 11:05:07;;;;;;;19.83;8.50;;;;;;;4.25;100.00;100412.16;125765;1101;101983;-77
2022/11/25 11:11:07;;;;;;;19.10;7.80;;;;;;;4.24;100.00;100422.45;124709;1102;102826;-77
2022/11/25 11:13:43;;;;;;;19.57;8.33;;;;;;;4.25;100.00;100421.66;124613;1105;104252;-78
2022/11/25 11:16:41;;;;;;;24.27;8.60;;;;;;;4.28;100.00;100411.45;124744;1105;103668;-77
2022/11/25 11:19:28;;;;;;;18.43;8.07;;;;;;;4.28;100.00;100425.33;124301;1105;102605;-77
2022/11/25 11:22:46;;;;;;;;;;;;;;;;;;;;;
2022/11/25 11:25:33;;;;;;;19.50;8.73;;;;;;;4.23;100.00;100424.16;125208;1105;102653;-78
2022/11/25 11:31:43;;;;;;;22.87;10.07;;;;;;;4.22;100.00;100430.15;125260;1105;104121;-78
2022/11/25 11:34:52;;;;;;;19.53;8.20;;;;;;;4.18;100.00;100443.78;124809;1105;102134;-78
2022/11/25 11:37:44;;;;;;;22.23;9.17;;;;;;;4.16;100.00;100440.20;125015;1105;104265;-80
2022/11/25 11:40:42;;;;;;;20.55;9.00;;;;;;;4.16;100.00;100440.20;124897;1109;104243;-77
2022/11/25 11:47:21;;;;;;;19.70;8.03;;;;;;;4.18;100.00;100446.38;125070;1105;104229;-76
2022/11/25 11:50:41;;;;;;;;;;;;;;;;;;;;;
2022/11/25 11:53:44;;;;;;;20.43;9.23;;;;;;;4.15;100.00;100451.38;125392;1102;104160;-76
2022/11/25 11:56:23;;;;;;;22.73;9.90;;;;;;;4.16;100.00;100440.20;124437;1105;104332;-78
2022/11/25 11:59:08;;;;;;;22.10;9.40;;;;;;;4.17;100.00;100446.28;124584;1102;104274;-78
2022/11/25 12:01:57;;;;;;;24.63;10.18;;;;;;;4.19;100.00;100444.66;124739;1102;104254;-76